createdAt,value
2022-10-11T00:01:14.014Z,100164.59
2022-10-11T00:03:42.763Z,100165.00
2022-10-11T00:06:11.470Z,100162.47
2022-10-11T00:08:40.021Z,100159.00
2022-10-11T00:11:10.523Z,100151.97
2022-10-11T00:13:39.142Z,100156.44
2022-10-11T00:16:11.693Z,100153.06
2022-10-11T00:18:40.983Z,100154.09
2022-10-11T00:21:15.109Z,100148.91
2022-10-11T00:23:44.494Z,100146.69
2022-10-11T00:26:14.988Z,100144.31
2022-10-11T00:28:43.751Z,100146.69
2022-10-11T00:31:16.665Z,100130.22
2022-10-11T00:33:46.061Z,100132.59
2022-10-11T00:36:17.353Z,100137.38
2022-10-11T00:38:47.013Z,100135.97
2022-10-11T00:41:17.547Z,100132.06
2022-10-11T00:43:47.014Z,100122.84
2022-10-11T00:46:18.503Z,100130.50
2022-10-11T00:49:19.928Z,100128.50
2022-10-11T00:51:56.283Z,100138.78
2022-10-11T00:54:31.021Z,100133.13
2022-10-11T00:57:07.691Z,100125.41
2022-10-11T00:59:43.381Z,100135.91
2022-10-11T01:02:15.060Z,100130.34
2022-10-11T01:04:45.104Z,100129.16
2022-10-11T01:07:14.193Z,100128.34
2022-10-11T01:09:43.692Z,100130.13
2022-10-11T01:12:27.624Z,100136.56
2022-10-11T01:15:53.396Z,100132.53
2022-10-11T01:18:49.651Z,100135.19
2022-10-11T01:21:43.327Z,100137.09
2022-10-11T01:25:12.625Z,100131.00
2022-10-11T01:28:08.802Z,100127.50
2022-10-11T01:30:39.412Z,100123.28
2022-10-11T01:33:25.818Z,100126.47
2022-10-11T01:36:00.281Z,100127.00
2022-10-11T01:38:49.765Z,100116.50
2022-10-11T01:41:31.972Z,100133.59
2022-10-11T01:44:04.711Z,100132.84
2022-10-11T01:46:35.141Z,100136.16
2022-10-11T01:49:05.649Z,100140.88
2022-10-11T01:51:47.347Z,100142.16
2022-10-11T01:55:10.357Z,100127.13
2022-10-11T01:58:07.305Z,100127.69
2022-10-11T02:01:14.596Z,100118.03
2022-10-11T02:04:40.983Z,100122.69
2022-10-11T02:07:57.695Z,100112.88
2022-10-11T02:11:01.895Z,100117.69
2022-10-11T02:13:59.027Z,100119.50
2022-10-11T02:16:42.837Z,100111.03
2022-10-11T02:19:19.030Z,100114.88
2022-10-11T02:21:58.313Z,100109.59
2022-10-11T02:24:40.234Z,100106.69
2022-10-11T02:27:12.285Z,100110.16
2022-10-11T02:29:45.199Z,100095.31
2022-10-11T02:32:17.550Z,100112.34
2022-10-11T02:35:00.988Z,100114.81
2022-10-11T02:37:52.400Z,100099.09
2022-10-11T02:40:32.816Z,100106.63
2022-10-11T02:43:13.334Z,100102.47
2022-10-11T02:45:58.302Z,100100.03
2022-10-11T02:48:29.537Z,100086.56
2022-10-11T02:50:58.782Z,100101.31
2022-10-11T02:53:28.798Z,100111.09
2022-10-11T02:55:57.954Z,100106.25
2022-10-11T02:58:27.419Z,100106.25
2022-10-11T03:00:56.048Z,100113.34
2022-10-11T03:03:24.648Z,100101.47
2022-10-11T03:06:01.376Z,100112.38
2022-10-11T03:08:29.467Z,100125.31
2022-10-11T03:10:58.296Z,100130.63
2022-10-11T03:13:27.120Z,100125.78
2022-10-11T03:16:03.348Z,100129.97
2022-10-11T03:18:32.600Z,100131.50
2022-10-11T03:21:00.294Z,100134.84
2022-10-11T03:23:29.053Z,100137.66
2022-10-11T03:25:56.809Z,100137.59
2022-10-11T03:28:25.470Z,100134.56
2022-10-11T03:30:54.336Z,100134.69
2022-10-11T03:33:23.061Z,100122.88
2022-10-11T03:35:51.658Z,100126.69
2022-10-11T03:38:23.385Z,100130.66
2022-10-11T03:40:52.350Z,100124.22
2022-10-11T03:43:21.758Z,100119.41
2022-10-11T03:45:50.348Z,100120.72
2022-10-11T03:48:19.816Z,100125.50
2022-10-11T03:50:48.607Z,100129.22
2022-10-11T03:53:17.258Z,100121.22
2022-10-11T03:55:46.061Z,100128.34
2022-10-11T03:58:14.648Z,100128.50
2022-10-11T04:00:43.236Z,100126.03
2022-10-11T04:03:12.137Z,100116.91
2022-10-11T04:05:40.769Z,100113.72
2022-10-11T04:08:12.081Z,100126.44
2022-10-11T04:10:41.637Z,100123.31
2022-10-11T04:13:12.192Z,100112.59
2022-10-11T04:15:41.600Z,100113.88
2022-10-11T04:18:10.955Z,100119.94
2022-10-11T04:20:39.057Z,100128.50
2022-10-11T04:23:08.156Z,100130.72
2022-10-11T04:25:39.951Z,100132.84
2022-10-11T04:28:09.434Z,100144.91
2022-10-11T04:30:38.056Z,100144.78
2022-10-11T04:33:06.672Z,100144.53
2022-10-11T04:35:35.256Z,100144.91
2022-10-11T04:38:03.900Z,100149.13
2022-10-11T04:40:31.897Z,100146.75
2022-10-11T04:43:00.715Z,100154.88
2022-10-11T04:45:29.423Z,100156.22
2022-10-11T04:47:58.614Z,100161.19
2022-10-11T04:50:27.415Z,100157.09
2022-10-11T04:52:56.014Z,100157.50
2022-10-11T04:55:24.739Z,100153.00
2022-10-11T04:57:54.253Z,100151.88
2022-10-11T05:00:23.862Z,100153.66
2022-10-11T05:02:54.009Z,100151.81
2022-10-11T05:05:23.473Z,100151.72
2022-10-11T05:07:52.141Z,100160.72
2022-10-11T05:10:21.687Z,100159.88
2022-10-11T05:12:50.348Z,100152.69
2022-10-11T05:15:20.143Z,100145.03
2022-10-11T05:17:48.834Z,100143.69
2022-10-11T05:20:17.754Z,100140.19
2022-10-11T05:22:45.513Z,100154.41
2022-10-11T05:25:14.144Z,100162.94
2022-10-11T05:27:43.564Z,100156.78
2022-10-11T05:30:12.621Z,100164.75
2022-10-11T05:32:42.055Z,100161.03
2022-10-11T05:35:10.698Z,100171.81
2022-10-11T05:37:39.328Z,100172.84
2022-10-11T05:40:09.260Z,100168.69
2022-10-11T05:42:38.770Z,100172.31
2022-10-11T05:45:08.502Z,100173.06
2022-10-11T05:47:37.133Z,100170.50
2022-10-11T05:50:06.524Z,100181.34
2022-10-11T05:52:35.100Z,100177.63
2022-10-11T05:55:04.392Z,100178.53
2022-10-11T05:57:32.986Z,100180.19
2022-10-11T06:00:02.697Z,100182.00
2022-10-11T06:02:31.305Z,100187.63
2022-10-11T06:04:59.961Z,100190.31
2022-10-11T06:07:28.493Z,100198.44
2022-10-11T06:09:57.149Z,100191.84
2022-10-11T06:12:25.837Z,100198.44
2022-10-11T06:14:55.484Z,100188.94
2022-10-11T06:17:24.217Z,100197.41
2022-10-11T06:19:52.787Z,100208.16
2022-10-11T06:22:21.424Z,100207.97
2022-10-11T06:24:50.065Z,100211.28
2022-10-11T06:27:18.675Z,100212.31
2022-10-11T06:29:47.307Z,100210.97
2022-10-11T06:32:16.285Z,100224.00
2022-10-11T06:34:45.699Z,100220.59
2022-10-11T06:37:15.458Z,100216.28
2022-10-11T06:39:44.113Z,100205.28
2022-10-11T06:42:13.051Z,100224.88
2022-10-11T06:44:42.641Z,100229.84
2022-10-11T06:47:11.352Z,100236.84
2022-10-11T06:49:39.970Z,100249.28
2022-10-11T06:52:10.229Z,100239.53
2022-10-11T06:54:43.869Z,100233.94
2022-10-11T06:57:14.125Z,100238.88
2022-10-11T06:59:42.676Z,100238.44
2022-10-11T07:02:12.062Z,100239.50
2022-10-11T07:04:40.589Z,100234.25
2022-10-11T07:07:09.074Z,100240.28
2022-10-11T07:09:37.919Z,100247.97
2022-10-11T07:12:07.569Z,100243.38
2022-10-11T07:14:36.162Z,100238.34
2022-10-11T07:17:05.635Z,100240.28
2022-10-11T07:19:34.324Z,100249.34
2022-10-11T07:22:02.918Z,100247.44
2022-10-11T07:24:31.497Z,100250.44
2022-10-11T07:27:00.842Z,100242.13
2022-10-11T07:29:29.272Z,100253.81
2022-10-11T07:31:57.930Z,100248.53
2022-10-11T07:34:26.599Z,100260.50
2022-10-11T07:36:55.305Z,100251.34
2022-10-11T07:39:23.858Z,100252.84
2022-10-11T07:41:53.219Z,100257.13
2022-10-11T07:44:21.990Z,100249.84
2022-10-11T07:46:51.417Z,100251.81
2022-10-11T07:49:19.977Z,100260.81
2022-10-11T07:51:48.486Z,100254.81
2022-10-11T07:54:17.007Z,100251.59
2022-10-11T07:56:45.594Z,100249.47
2022-10-11T07:59:14.959Z,100245.78
2022-10-11T08:01:44.442Z,100247.25
2022-10-11T08:04:13.142Z,100249.28
2022-10-11T08:06:42.468Z,100251.94
2022-10-11T08:09:12.263Z,100237.88
2022-10-11T08:11:40.810Z,100240.84
2022-10-11T08:14:11.672Z,100254.41
2022-10-11T08:16:40.870Z,100255.13
2022-10-11T08:19:10.822Z,100259.28
2022-10-11T08:21:39.386Z,100270.44
2022-10-11T08:24:08.279Z,100272.03
2022-10-11T08:26:36.998Z,100267.03
2022-10-11T08:29:06.935Z,100276.16
2022-10-11T08:31:36.137Z,100272.19
2022-10-11T08:34:05.541Z,100274.59
2022-10-11T08:36:34.191Z,100266.81
2022-10-11T08:39:02.784Z,100274.31
2022-10-11T08:41:53.655Z,100266.22
2022-10-11T08:45:08.990Z,100270.78
2022-10-11T08:47:44.919Z,100274.19
2022-10-11T08:50:22.884Z,100269.78
2022-10-11T08:53:04.921Z,100276.06
2022-10-11T08:55:51.641Z,100289.88
2022-10-11T08:58:39.556Z,100282.69
2022-10-11T09:01:21.101Z,100282.44
2022-10-11T09:03:50.945Z,100275.34
2022-10-11T09:07:04.708Z,100275.44
2022-10-11T09:10:13.809Z,100278.25
2022-10-11T09:13:18.857Z,100283.31
2022-10-11T09:16:09.504Z,100287.06
2022-10-11T09:19:15.857Z,100287.91
2022-10-11T09:22:26.824Z,100291.22
2022-10-11T09:25:19.568Z,100288.78
2022-10-11T09:28:40.959Z,100284.31
2022-10-11T09:31:12.286Z,100283.22
2022-10-11T09:33:52.736Z,100279.91
2022-10-11T09:36:47.337Z,100284.28
2022-10-11T09:39:35.780Z,100289.13
2022-10-11T09:42:08.674Z,100285.59
2022-10-11T09:44:49.087Z,100293.63
2022-10-11T09:47:36.835Z,100284.34
2022-10-11T09:50:25.881Z,100290.19
2022-10-11T09:53:00.138Z,100282.97
2022-10-11T09:55:54.478Z,100282.53
2022-10-11T09:58:30.243Z,100289.31
2022-10-11T10:01:10.415Z,100284.44
2022-10-11T10:03:44.502Z,100286.94
2022-10-11T10:06:29.672Z,100288.81
2022-10-11T10:09:31.134Z,100289.84
2022-10-11T10:11:59.714Z,100277.94
2022-10-11T10:14:31.269Z,100285.75
2022-10-11T10:17:18.887Z,100282.56
2022-10-11T10:19:54.558Z,100276.56
2022-10-11T10:22:29.976Z,100282.53
2022-10-11T10:25:03.390Z,100272.34
2022-10-11T10:27:33.549Z,100279.34
2022-10-11T10:30:07.851Z,100271.66
2022-10-11T10:33:05.018Z,100276.38
2022-10-11T10:35:55.579Z,100273.38
2022-10-11T10:38:48.656Z,100277.69
2022-10-11T10:41:20.796Z,100276.91
2022-10-11T10:43:57.675Z,100273.84
2022-10-11T10:46:54.158Z,100274.84
2022-10-11T10:53:43.496Z,100278.16
2022-10-11T10:56:45.687Z,100264.06
2022-10-11T10:59:45.397Z,100268.25
2022-10-11T11:02:50.069Z,100266.47
2022-10-11T11:05:58.979Z,100266.38
2022-10-11T11:09:15.408Z,100263.69
2022-10-11T11:12:01.481Z,100261.59
2022-10-11T11:14:59.658Z,100267.59
2022-10-11T11:18:10.276Z,100264.28
2022-10-11T11:21:20.391Z,100264.44
2022-10-11T11:24:06.779Z,100267.53
2022-10-11T11:27:33.745Z,100265.72
2022-10-11T11:30:12.783Z,100255.75
2022-10-11T11:32:52.517Z,100264.44
2022-10-11T11:35:46.283Z,100252.97
2022-10-11T11:38:25.923Z,100255.91
2022-10-11T11:41:06.232Z,100251.06
2022-10-11T11:43:45.539Z,100250.53
2022-10-11T11:46:24.842Z,100254.84
2022-10-11T11:49:03.867Z,100252.81
2022-10-11T11:51:43.372Z,100255.59
2022-10-11T11:55:01.487Z,100247.25
2022-10-11T11:58:15.668Z,100241.78
2022-10-11T12:01:26.489Z,100236.19
2022-10-11T12:04:45.726Z,100237.34
2022-10-11T12:07:22.750Z,100231.34
2022-10-11T12:10:25.448Z,100235.75
2022-10-11T12:13:32.166Z,100233.97
2022-10-11T12:16:13.260Z,100231.81
2022-10-11T12:19:02.039Z,100235.81
2022-10-11T12:21:42.087Z,100228.44
2022-10-11T12:24:24.650Z,100221.50
2022-10-11T12:26:59.693Z,100222.94
2022-10-11T12:29:49.557Z,100217.41
2022-10-11T12:32:38.792Z,100220.69
2022-10-11T12:35:32.295Z,100227.41
2022-10-11T12:38:40.247Z,100225.44
2022-10-11T12:41:14.624Z,100223.09
2022-10-11T12:43:48.962Z,100218.72
2022-10-11T12:46:29.809Z,100229.03
2022-10-11T12:49:13.262Z,100223.75
2022-10-11T12:52:01.760Z,100223.63
2022-10-11T12:54:48.216Z,100219.41
2022-10-11T12:58:19.253Z,100227.84
2022-10-11T13:00:56.426Z,100227.97
2022-10-11T13:03:41.698Z,100219.84
2022-10-11T13:06:14.940Z,100217.28
2022-10-11T13:08:54.876Z,100217.59
2022-10-11T13:11:39.391Z,100206.91
2022-10-11T13:14:18.231Z,100215.69
2022-10-11T13:17:04.109Z,100219.91
2022-10-11T13:19:37.388Z,100217.06
2022-10-11T13:22:22.079Z,100217.78
2022-10-11T13:24:50.965Z,100216.72
2022-10-11T13:27:27.296Z,100216.38
2022-10-11T13:30:02.395Z,100218.66
2022-10-11T13:32:32.900Z,100208.09
2022-10-11T13:35:19.705Z,100215.09
2022-10-11T13:37:52.117Z,100212.75
2022-10-11T13:40:23.160Z,100213.06
2022-10-11T13:42:54.195Z,100218.06
2022-10-11T13:45:27.695Z,100213.63
2022-10-11T13:47:56.918Z,100219.94
2022-10-11T13:50:35.501Z,100220.38
2022-10-11T13:53:10.121Z,100217.22
2022-10-11T13:56:04.390Z,100217.28
2022-10-11T13:59:00.772Z,100217.31
2022-10-11T14:01:40.779Z,100217.94
2022-10-11T14:04:18.606Z,100215.03
2022-10-11T14:07:02.491Z,100212.09
2022-10-11T14:09:38.180Z,100218.09
2022-10-11T14:12:40.505Z,100211.75
2022-10-11T14:15:57.903Z,100218.31
2022-10-11T14:18:51.923Z,100217.09
2022-10-11T14:21:35.748Z,100213.69
2022-10-11T14:24:12.318Z,100219.59
2022-10-11T14:26:56.450Z,100221.56
2022-10-11T14:29:39.052Z,100220.69
2022-10-11T14:32:17.945Z,100219.06
2022-10-11T14:34:48.974Z,100222.25
2022-10-11T14:37:19.657Z,100217.00
2022-10-11T14:39:50.359Z,100212.34
2022-10-11T14:42:19.711Z,100221.66
2022-10-11T14:44:48.424Z,100213.41
2022-10-11T14:47:18.365Z,100213.94
2022-10-11T14:49:47.020Z,100221.97
2022-10-11T14:52:15.604Z,100221.13
2022-10-11T14:54:44.225Z,100220.00
2022-10-11T14:57:13.771Z,100222.06
2022-10-11T14:59:43.148Z,100215.94
2022-10-11T15:02:12.549Z,100225.03
2022-10-11T15:04:41.136Z,100221.78
2022-10-11T15:07:13.438Z,100216.06
2022-10-11T15:09:42.343Z,100214.00
2022-10-11T15:12:10.907Z,100205.97
2022-10-11T15:14:39.424Z,100216.09
2022-10-11T15:17:08.260Z,100220.38
2022-10-11T15:19:37.042Z,100213.25
2022-10-11T15:22:06.386Z,100222.38
2022-10-11T15:24:34.971Z,100224.63
2022-10-11T15:27:04.509Z,100224.25
2022-10-11T15:29:33.127Z,100226.34
2022-10-11T15:32:01.739Z,100226.13
2022-10-11T15:34:30.611Z,100223.16
2022-10-11T15:36:59.398Z,100224.53
2022-10-11T15:39:32.755Z,100230.09
2022-10-11T15:42:01.398Z,100222.72
2022-10-11T15:44:29.989Z,100220.22
2022-10-11T15:46:58.594Z,100234.22
2022-10-11T15:49:28.030Z,100227.06
2022-10-11T15:51:56.616Z,100225.31
2022-10-11T15:54:26.069Z,100232.47
2022-10-11T15:56:54.641Z,100239.31
2022-10-11T15:59:24.061Z,100227.91
2022-10-11T16:01:53.007Z,100220.66
2022-10-11T16:04:23.248Z,100233.03
2022-10-11T16:06:51.977Z,100235.84
2022-10-11T16:09:29.051Z,100236.31
2022-10-11T16:11:59.228Z,100238.25
2022-10-11T16:14:27.992Z,100252.16
2022-10-11T16:17:00.166Z,100249.47
2022-10-11T16:19:28.840Z,100253.03
2022-10-11T16:21:58.204Z,100255.44
2022-10-11T16:24:27.473Z,100256.28
2022-10-11T16:29:34.801Z,100261.91
2022-10-11T16:32:03.400Z,100264.94
2022-10-11T16:34:36.641Z,100268.81
2022-10-11T16:37:05.271Z,100269.81
2022-10-11T16:39:35.334Z,100272.09
2022-10-11T16:42:03.114Z,100270.44
2022-10-11T16:44:32.955Z,100267.78
2022-10-11T16:47:01.676Z,100272.28
2022-10-11T16:49:44.567Z,100256.81
2022-10-11T16:52:21.745Z,100274.81
2022-10-11T16:54:58.935Z,100279.09
2022-10-11T17:03:18.460Z,100274.50
2022-10-11T17:05:48.283Z,100280.78
2022-10-11T17:08:20.030Z,100285.41
2022-10-11T17:10:57.890Z,100280.63
2022-10-11T17:13:26.072Z,100281.31
2022-10-11T17:15:55.662Z,100288.75
2022-10-11T17:18:27.217Z,100289.81
2022-10-11T17:21:08.915Z,100286.47
2022-10-11T17:23:41.831Z,100296.66
2022-10-11T17:26:24.999Z,100291.34
2022-10-11T17:28:59.017Z,100290.78
2022-10-11T17:31:32.948Z,100300.38
2022-10-11T17:34:02.551Z,100293.44
2022-10-11T17:36:34.906Z,100291.63
2022-10-11T17:39:15.208Z,100302.63
2022-10-11T17:44:19.303Z,100294.63
2022-10-11T17:46:49.078Z,100290.06
2022-10-11T17:51:59.405Z,100297.13
2022-10-11T17:54:27.390Z,100292.38
2022-10-11T17:56:56.924Z,100282.75
2022-10-11T17:59:27.782Z,100276.69
2022-10-11T18:01:59.576Z,100280.44
2022-10-11T18:04:30.150Z,100290.03
2022-10-11T18:06:59.742Z,100288.00
2022-10-11T18:09:27.660Z,100285.34
2022-10-11T18:11:55.538Z,100284.06
2022-10-11T18:14:25.119Z,100280.97
2022-10-11T18:16:52.980Z,100289.50
2022-10-11T18:19:24.382Z,100294.75
2022-10-11T18:21:55.760Z,100300.34
2022-10-11T18:24:27.304Z,100300.75
2022-10-11T18:26:56.853Z,100300.28
2022-10-11T18:29:26.597Z,100303.38
2022-10-11T18:31:56.325Z,100304.34
2022-10-11T18:34:25.857Z,100307.50
2022-10-11T18:36:55.511Z,100309.06
2022-10-11T18:39:23.362Z,100317.41
2022-10-11T18:41:52.055Z,100313.94
2022-10-11T18:44:21.687Z,100309.72
2022-10-11T18:46:51.290Z,100303.38
2022-10-11T18:49:20.713Z,100308.47
2022-10-11T18:51:49.270Z,100311.38
2022-10-11T18:54:21.200Z,100309.53
2022-10-11T18:56:51.130Z,100303.88
2022-10-11T18:59:20.361Z,100307.84
2022-10-11T19:01:52.581Z,100314.53
2022-10-11T19:04:21.152Z,100305.84
2022-10-11T19:06:49.938Z,100304.75
2022-10-11T19:09:26.156Z,100303.69
2022-10-11T19:11:56.781Z,100308.81
2022-10-11T19:14:30.241Z,100308.00
2022-10-11T19:16:58.889Z,100316.88
2022-10-11T19:19:29.797Z,100310.34
2022-10-11T19:21:57.966Z,100314.00
2022-10-11T19:24:29.196Z,100318.91
2022-10-11T19:27:02.494Z,100308.97
2022-10-11T19:29:32.561Z,100313.97
2022-10-11T19:32:03.786Z,100323.63
2022-10-11T19:34:33.362Z,100319.69
2022-10-11T19:37:01.402Z,100321.22
2022-10-11T19:39:32.636Z,100323.22
2022-10-11T19:42:01.321Z,100320.66
2022-10-11T19:44:34.469Z,100319.38
